sensor_id;sensor_type;location;lat;lon;timestamp;P1;durP1;ratioP1;P2;durP2;ratioP2
4575;SDS011;2300;51.874;8.430;2022-08-19T00:01:53;14.55;;;10.13;;
4575;SDS011;2300;51.874;8.430;2022-08-19T00:04:22;17.05;;;9.35;;
4575;SDS011;2300;51.874;8.430;2022-08-19T00:06:50;16.30;;;10.60;;
4575;SDS011;2300;51.874;8.430;2022-08-19T00:09:19;19.35;;;10.88;;
4575;SDS011;2300;51.874;8.430;2022-08-19T00:11:47;16.20;;;9.40;;
4575;SDS011;2300;51.874;8.430;2022-08-19T00:14:15;15.13;;;10.05;;
4575;SDS011;2300;51.874;8.430;2022-08-19T00:16:43;17.73;;;10.20;;
4575;SDS011;2300;51.874;8.430;2022-08-19T00:19:12;16.88;;;10.27;;
4575;SDS011;2300;51.874;8.430;2022-08-19T00:21:39;16.77;;;10.18;;
4575;SDS011;2300;51.874;8.430;2022-08-19T00:24:05;14.15;;;9.65;;
4575;SDS011;2300;51.874;8.430;2022-08-19T00:26:34;14.80;;;10.25;;
4575;SDS011;2300;51.874;8.430;2022-08-19T00:29:01;15.48;;;10.32;;
4575;SDS011;2300;51.874;8.430;2022-08-19T00:31:29;14.52;;;9.23;;
4575;SDS011;2300;51.874;8.430;2022-08-19T00:33:56;14.90;;;9.90;;
4575;SDS011;2300;51.874;8.430;2022-08-19T00:36:22;15.93;;;11.35;;
4575;SDS011;2300;51.874;8.430;2022-08-19T00:38:49;17.63;;;10.98;;
4575;SDS011;2300;51.874;8.430;2022-08-19T00:41:17;17.42;;;10.75;;
4575;SDS011;2300;51.874;8.430;2022-08-19T00:43:57;17.50;;;10.52;;
4575;SDS011;2300;51.874;8.430;2022-08-19T00:46:24;16.05;;;10.02;;
4575;SDS011;2300;51.874;8.430;2022-08-19T00:48:51;16.25;;;10.70;;
4575;SDS011;2300;51.874;8.430;2022-08-19T00:51:18;13.88;;;10.43;;
4575;SDS011;2300;51.874;8.430;2022-08-19T00:53:44;14.38;;;10.25;;
4575;SDS011;2300;51.874;8.430;2022-08-19T00:56:11;15.10;;;10.50;;
4575;SDS011;2300;51.874;8.430;2022-08-19T00:58:38;15.48;;;9.60;;
4575;SDS011;2300;51.874;8.430;2022-08-19T01:01:06;18.63;;;10.48;;
4575;SDS011;2300;51.874;8.430;2022-08-19T01:03:33;14.32;;;10.52;;
4575;SDS011;2300;51.874;8.430;2022-08-19T01:05:59;15.25;;;10.13;;
4575;SDS011;2300;51.874;8.430;2022-08-19T01:08:26;15.35;;;10.85;;
4575;SDS011;2300;51.874;8.430;2022-08-19T01:10:53;15.30;;;10.85;;
4575;SDS011;2300;51.874;8.430;2022-08-19T01:13:25;16.13;;;11.45;;
4575;SDS011;2300;51.874;8.430;2022-08-19T01:15:57;17.85;;;11.50;;
4575;SDS011;2300;51.874;8.430;2022-08-19T01:18:29;15.27;;;11.00;;
4575;SDS011;2300;51.874;8.430;2022-08-19T01:20:58;13.02;;;10.32;;
4575;SDS011;2300;51.874;8.430;2022-08-19T01:23:29;17.67;;;10.85;;
4575;SDS011;2300;51.874;8.430;2022-08-19T01:26:08;15.88;;;11.57;;
4575;SDS011;2300;51.874;8.430;2022-08-19T01:28:35;15.57;;;11.10;;
4575;SDS011;2300;51.874;8.430;2022-08-19T01:31:03;18.58;;;11.32;;
4575;SDS011;2300;51.874;8.430;2022-08-19T01:33:30;17.35;;;10.85;;
4575;SDS011;2300;51.874;8.430;2022-08-19T01:39:10;16.30;;;11.68;;
4575;SDS011;2300;51.874;8.430;2022-08-19T01:41:39;15.15;;;10.93;;
4575;SDS011;2300;51.874;8.430;2022-08-19T01:44:06;17.33;;;12.13;;
4575;SDS011;2300;51.874;8.430;2022-08-19T01:46:34;19.20;;;11.93;;
4575;SDS011;2300;51.874;8.430;2022-08-19T01:49:01;15.82;;;12.35;;
4575;SDS011;2300;51.874;8.430;2022-08-19T01:51:28;18.10;;;11.93;;
4575;SDS011;2300;51.874;8.430;2022-08-19T01:53:55;14.90;;;11.25;;
4575;SDS011;2300;51.874;8.430;2022-08-19T01:56:23;15.65;;;12.02;;
4575;SDS011;2300;51.874;8.430;2022-08-19T01:58:51;18.05;;;12.32;;
4575;SDS011;2300;51.874;8.430;2022-08-19T02:01:21;17.02;;;12.40;;
4575;SDS011;2300;51.874;8.430;2022-08-19T02:03:48;14.85;;;11.43;;
4575;SDS011;2300;51.874;8.430;2022-08-19T02:06:14;19.35;;;12.82;;
4575;SDS011;2300;51.874;8.430;2022-08-19T02:08:42;16.73;;;11.88;;
4575;SDS011;2300;51.874;8.430;2022-08-19T02:11:17;16.90;;;12.52;;
4575;SDS011;2300;51.874;8.430;2022-08-19T02:13:46;18.73;;;12.13;;
4575;SDS011;2300;51.874;8.430;2022-08-19T02:16:14;14.43;;;11.00;;
4575;SDS011;2300;51.874;8.430;2022-08-19T02:18:41;19.38;;;12.20;;
4575;SDS011;2300;51.874;8.430;2022-08-19T02:21:07;14.00;;;11.30;;
4575;SDS011;2300;51.874;8.430;2022-08-19T02:23:34;15.32;;;11.93;;
4575;SDS011;2300;51.874;8.430;2022-08-19T02:26:00;17.98;;;13.25;;
4575;SDS011;2300;51.874;8.430;2022-08-19T02:28:27;17.55;;;12.00;;
4575;SDS011;2300;51.874;8.430;2022-08-19T02:30:54;18.52;;;13.13;;
4575;SDS011;2300;51.874;8.430;2022-08-19T02:33:21;16.95;;;13.77;;
4575;SDS011;2300;51.874;8.430;2022-08-19T02:35:47;17.65;;;13.65;;
4575;SDS011;2300;51.874;8.430;2022-08-19T02:38:14;17.83;;;13.60;;
4575;SDS011;2300;51.874;8.430;2022-08-19T02:40:52;16.02;;;13.02;;
4575;SDS011;2300;51.874;8.430;2022-08-19T02:43:21;19.13;;;13.52;;
4575;SDS011;2300;51.874;8.430;2022-08-19T02:45:49;17.85;;;13.82;;
4575;SDS011;2300;51.874;8.430;2022-08-19T02:48:18;19.20;;;14.00;;
4575;SDS011;2300;51.874;8.430;2022-08-19T02:50:47;20.25;;;14.05;;
4575;SDS011;2300;51.874;8.430;2022-08-19T02:53:19;19.25;;;14.30;;
4575;SDS011;2300;51.874;8.430;2022-08-19T02:55:47;17.67;;;14.20;;
4575;SDS011;2300;51.874;8.430;2022-08-19T02:58:15;17.52;;;13.60;;
4575;SDS011;2300;51.874;8.430;2022-08-19T03:00:43;16.25;;;14.27;;
4575;SDS011;2300;51.874;8.430;2022-08-19T03:03:10;19.75;;;14.38;;
4575;SDS011;2300;51.874;8.430;2022-08-19T03:05:38;18.08;;;13.88;;
4575;SDS011;2300;51.874;8.430;2022-08-19T03:08:05;17.55;;;14.20;;
4575;SDS011;2300;51.874;8.430;2022-08-19T03:10:39;17.25;;;13.77;;
4575;SDS011;2300;51.874;8.430;2022-08-19T03:13:08;18.52;;;14.13;;
4575;SDS011;2300;51.874;8.430;2022-08-19T03:15:38;17.45;;;13.40;;
4575;SDS011;2300;51.874;8.430;2022-08-19T03:18:06;17.77;;;13.48;;
4575;SDS011;2300;51.874;8.430;2022-08-19T03:20:33;17.15;;;14.85;;
4575;SDS011;2300;51.874;8.430;2022-08-19T03:23:01;18.48;;;15.23;;
4575;SDS011;2300;51.874;8.430;2022-08-19T03:25:28;20.20;;;15.77;;
4575;SDS011;2300;51.874;8.430;2022-08-19T03:27:54;21.42;;;15.02;;
4575;SDS011;2300;51.874;8.430;2022-08-19T03:30:21;19.83;;;15.30;;
4575;SDS011;2300;51.874;8.430;2022-08-19T03:32:47;18.75;;;15.35;;
4575;SDS011;2300;51.874;8.430;2022-08-19T03:35:13;20.92;;;14.85;;
4575;SDS011;2300;51.874;8.430;2022-08-19T03:37:40;20.98;;;15.40;;
4575;SDS011;2300;51.874;8.430;2022-08-19T03:40:08;20.65;;;15.65;;
4575;SDS011;2300;51.874;8.430;2022-08-19T03:42:35;23.42;;;16.55;;
4575;SDS011;2300;51.874;8.430;2022-08-19T03:45:02;21.05;;;16.67;;
4575;SDS011;2300;51.874;8.430;2022-08-19T03:47:29;22.08;;;16.38;;
4575;SDS011;2300;51.874;8.430;2022-08-19T03:49:56;22.80;;;16.90;;
4575;SDS011;2300;51.874;8.430;2022-08-19T03:52:22;20.75;;;15.85;;
4575;SDS011;2300;51.874;8.430;2022-08-19T03:54:49;22.27;;;16.63;;
4575;SDS011;2300;51.874;8.430;2022-08-19T03:57:17;18.75;;;16.35;;
4575;SDS011;2300;51.874;8.430;2022-08-19T03:59:43;20.88;;;17.08;;
4575;SDS011;2300;51.874;8.430;2022-08-19T04:02:10;23.13;;;17.92;;
4575;SDS011;2300;51.874;8.430;2022-08-19T04:04:38;24.75;;;18.73;;
4575;SDS011;2300;51.874;8.430;2022-08-19T04:07:05;21.00;;;18.35;;
4575;SDS011;2300;51.874;8.430;2022-08-19T04:09:33;30.58;;;20.08;;
4575;SDS011;2300;51.874;8.430;2022-08-19T04:12:01;22.42;;;18.95;;
4575;SDS011;2300;51.874;8.430;2022-08-19T04:14:31;24.08;;;19.13;;
4575;SDS011;2300;51.874;8.430;2022-08-19T04:16:59;24.98;;;20.23;;
4575;SDS011;2300;51.874;8.430;2022-08-19T04:19:26;24.95;;;20.05;;
4575;SDS011;2300;51.874;8.430;2022-08-19T04:21:55;22.48;;;18.48;;
4575;SDS011;2300;51.874;8.430;2022-08-19T04:24:22;31.20;;;19.60;;
4575;SDS011;2300;51.874;8.430;2022-08-19T04:26:49;23.70;;;18.42;;
4575;SDS011;2300;51.874;8.430;2022-08-19T04:29:17;22.88;;;17.75;;
4575;SDS011;2300;51.874;8.430;2022-08-19T04:31:48;22.92;;;19.08;;
4575;SDS011;2300;51.874;8.430;2022-08-19T04:34:15;23.30;;;18.67;;
4575;SDS011;2300;51.874;8.430;2022-08-19T04:36:47;26.42;;;19.30;;
4575;SDS011;2300;51.874;8.430;2022-08-19T04:39:17;24.70;;;18.75;;
4575;SDS011;2300;51.874;8.430;2022-08-19T04:41:46;23.05;;;19.10;;
4575;SDS011;2300;51.874;8.430;2022-08-19T04:44:30;23.15;;;19.50;;
4575;SDS011;2300;51.874;8.430;2022-08-19T04:46:58;24.33;;;20.58;;
4575;SDS011;2300;51.874;8.430;2022-08-19T04:49:25;27.38;;;21.60;;
4575;SDS011;2300;51.874;8.430;2022-08-19T04:51:52;27.13;;;20.70;;
4575;SDS011;2300;51.874;8.430;2022-08-19T04:54:20;26.92;;;20.58;;
4575;SDS011;2300;51.874;8.430;2022-08-19T04:56:49;30.80;;;22.67;;
4575;SDS011;2300;51.874;8.430;2022-08-19T04:59:17;31.52;;;22.27;;
4575;SDS011;2300;51.874;8.430;2022-08-19T05:01:45;32.42;;;21.27;;
4575;SDS011;2300;51.874;8.430;2022-08-19T05:04:17;27.83;;;21.92;;
4575;SDS011;2300;51.874;8.430;2022-08-19T05:06:45;23.70;;;20.83;;
4575;SDS011;2300;51.874;8.430;2022-08-19T05:09:12;25.15;;;20.52;;
4575;SDS011;2300;51.874;8.430;2022-08-19T05:11:39;28.17;;;20.55;;
4575;SDS011;2300;51.874;8.430;2022-08-19T05:14:05;28.33;;;21.50;;
4575;SDS011;2300;51.874;8.430;2022-08-19T05:16:33;30.42;;;23.92;;
4575;SDS011;2300;51.874;8.430;2022-08-19T05:18:59;29.00;;;22.50;;
4575;SDS011;2300;51.874;8.430;2022-08-19T05:21:45;31.80;;;23.65;;
4575;SDS011;2300;51.874;8.430;2022-08-19T05:24:29;29.52;;;24.23;;
4575;SDS011;2300;51.874;8.430;2022-08-19T05:26:59;31.52;;;24.00;;
4575;SDS011;2300;51.874;8.430;2022-08-19T05:29:28;28.25;;;23.42;;
4575;SDS011;2300;51.874;8.430;2022-08-19T05:31:56;29.88;;;24.38;;
4575;SDS011;2300;51.874;8.430;2022-08-19T05:34:24;34.00;;;24.58;;
4575;SDS011;2300;51.874;8.430;2022-08-19T05:36:53;30.77;;;25.17;;
4575;SDS011;2300;51.874;8.430;2022-08-19T05:39:22;30.70;;;23.98;;
4575;SDS011;2300;51.874;8.430;2022-08-19T05:41:50;30.10;;;23.48;;
4575;SDS011;2300;51.874;8.430;2022-08-19T05:44:19;28.15;;;22.55;;
4575;SDS011;2300;51.874;8.430;2022-08-19T05:50:03;30.27;;;22.65;;
4575;SDS011;2300;51.874;8.430;2022-08-19T05:52:32;28.15;;;22.60;;
4575;SDS011;2300;51.874;8.430;2022-08-19T05:55:01;28.52;;;23.75;;
4575;SDS011;2300;51.874;8.430;2022-08-19T05:57:27;30.38;;;23.25;;
4575;SDS011;2300;51.874;8.430;2022-08-19T05:59:54;29.00;;;23.38;;
4575;SDS011;2300;51.874;8.430;2022-08-19T06:02:21;29.63;;;23.58;;
4575;SDS011;2300;51.874;8.430;2022-08-19T06:04:48;27.00;;;22.80;;
4575;SDS011;2300;51.874;8.430;2022-08-19T06:07:14;29.80;;;23.10;;
4575;SDS011;2300;51.874;8.430;2022-08-19T06:09:50;27.98;;;22.83;;
4575;SDS011;2300;51.874;8.430;2022-08-19T06:12:53;27.65;;;21.90;;
4575;SDS011;2300;51.874;8.430;2022-08-19T06:15:21;26.23;;;21.67;;
4575;SDS011;2300;51.874;8.430;2022-08-19T06:17:50;32.17;;;24.58;;
4575;SDS011;2300;51.874;8.430;2022-08-19T06:20:17;28.98;;;23.98;;
4575;SDS011;2300;51.874;8.430;2022-08-19T06:22:46;33.55;;;24.70;;
4575;SDS011;2300;51.874;8.430;2022-08-19T06:25:16;40.03;;;26.02;;
4575;SDS011;2300;51.874;8.430;2022-08-19T06:27:43;36.58;;;25.20;;
4575;SDS011;2300;51.874;8.430;2022-08-19T06:30:10;30.27;;;23.98;;
4575;SDS011;2300;51.874;8.430;2022-08-19T06:32:38;28.90;;;23.88;;
4575;SDS011;2300;51.874;8.430;2022-08-19T06:35:05;30.17;;;23.50;;
4575;SDS011;2300;51.874;8.430;2022-08-19T06:37:32;30.00;;;23.52;;
4575;SDS011;2300;51.874;8.430;2022-08-19T06:39:59;29.92;;;23.83;;
4575;SDS011;2300;51.874;8.430;2022-08-19T06:42:26;28.98;;;23.13;;
4575;SDS011;2300;51.874;8.430;2022-08-19T06:44:53;31.23;;;21.90;;
4575;SDS011;2300;51.874;8.430;2022-08-19T06:47:20;27.55;;;21.75;;
4575;SDS011;2300;51.874;8.430;2022-08-19T06:49:48;27.15;;;21.30;;
4575;SDS011;2300;51.874;8.430;2022-08-19T06:52:14;24.48;;;20.92;;
4575;SDS011;2300;51.874;8.430;2022-08-19T06:54:41;24.98;;;19.85;;
4575;SDS011;2300;51.874;8.430;2022-08-19T06:57:08;25.50;;;19.63;;
4575;SDS011;2300;51.874;8.430;2022-08-19T06:59:41;25.35;;;19.67;;
4575;SDS011;2300;51.874;8.430;2022-08-19T07:02:07;25.00;;;19.58;;
4575;SDS011;2300;51.874;8.430;2022-08-19T07:04:35;24.13;;;18.10;;
4575;SDS011;2300;51.874;8.430;2022-08-19T07:07:04;19.10;;;16.77;;
4575;SDS011;2300;51.874;8.430;2022-08-19T07:09:34;21.38;;;16.95;;
4575;SDS011;2300;51.874;8.430;2022-08-19T07:12:03;34.80;;;16.23;;
4575;SDS011;2300;51.874;8.430;2022-08-19T07:14:32;17.90;;;16.00;;
4575;SDS011;2300;51.874;8.430;2022-08-19T07:17:04;18.80;;;16.02;;
4575;SDS011;2300;51.874;8.430;2022-08-19T07:19:34;15.30;;;13.38;;
4575;SDS011;2300;51.874;8.430;2022-08-19T07:22:02;16.90;;;13.32;;
4575;SDS011;2300;51.874;8.430;2022-08-19T07:24:30;16.70;;;13.55;;
4575;SDS011;2300;51.874;8.430;2022-08-19T07:26:57;15.82;;;12.50;;
4575;SDS011;2300;51.874;8.430;2022-08-19T07:29:27;14.27;;;11.30;;
4575;SDS011;2300;51.874;8.430;2022-08-19T07:31:56;11.63;;;9.45;;
4575;SDS011;2300;51.874;8.430;2022-08-19T07:34:25;12.85;;;8.85;;
4575;SDS011;2300;51.874;8.430;2022-08-19T07:36:53;14.00;;;10.48;;
4575;SDS011;2300;51.874;8.430;2022-08-19T07:39:23;13.93;;;11.70;;
4575;SDS011;2300;51.874;8.430;2022-08-19T07:41:52;15.77;;;10.40;;
4575;SDS011;2300;51.874;8.430;2022-08-19T07:44:19;16.85;;;10.65;;
4575;SDS011;2300;51.874;8.430;2022-08-19T07:46:47;14.05;;;10.27;;
4575;SDS011;2300;51.874;8.430;2022-08-19T07:49:15;15.50;;;11.10;;
4575;SDS011;2300;51.874;8.430;2022-08-19T07:51:45;16.50;;;10.65;;
4575;SDS011;2300;51.874;8.430;2022-08-19T07:54:12;13.82;;;11.05;;
4575;SDS011;2300;51.874;8.430;2022-08-19T07:56:39;14.68;;;10.77;;
4575;SDS011;2300;51.874;8.430;2022-08-19T07:59:06;12.95;;;10.20;;
4575;SDS011;2300;51.874;8.430;2022-08-19T08:01:34;14.02;;;9.82;;
4575;SDS011;2300;51.874;8.430;2022-08-19T08:04:00;11.80;;;9.05;;
4575;SDS011;2300;51.874;8.430;2022-08-19T08:06:46;16.48;;;9.23;;
4575;SDS011;2300;51.874;8.430;2022-08-19T08:09:31;10.70;;;8.77;;
4575;SDS011;2300;51.874;8.430;2022-08-19T08:12:00;15.93;;;9.70;;
4575;SDS011;2300;51.874;8.430;2022-08-19T08:14:30;14.50;;;9.50;;
4575;SDS011;2300;51.874;8.430;2022-08-19T08:16:59;18.38;;;10.50;;
4575;SDS011;2300;51.874;8.430;2022-08-19T08:19:26;14.15;;;9.95;;
4575;SDS011;2300;51.874;8.430;2022-08-19T08:21:56;15.23;;;11.65;;
4575;SDS011;2300;51.874;8.430;2022-08-19T08:24:25;13.13;;;10.48;;
4575;SDS011;2300;51.874;8.430;2022-08-19T08:26:52;14.63;;;11.05;;
4575;SDS011;2300;51.874;8.430;2022-08-19T08:29:19;11.95;;;9.27;;
4575;SDS011;2300;51.874;8.430;2022-08-19T08:31:46;13.68;;;10.10;;
4575;SDS011;2300;51.874;8.430;2022-08-19T08:34:13;13.10;;;9.88;;
4575;SDS011;2300;51.874;8.430;2022-08-19T08:36:41;13.00;;;11.52;;
4575;SDS011;2300;51.874;8.430;2022-08-19T08:39:11;12.38;;;10.25;;
4575;SDS011;2300;51.874;8.430;2022-08-19T08:41:42;14.57;;;11.38;;
4575;SDS011;2300;51.874;8.430;2022-08-19T08:44:19;14.68;;;11.43;;
4575;SDS011;2300;51.874;8.430;2022-08-19T08:46:48;15.13;;;10.57;;
4575;SDS011;2300;51.874;8.430;2022-08-19T08:49:20;13.10;;;10.93;;
4575;SDS011;2300;51.874;8.430;2022-08-19T08:51:54;12.93;;;11.25;;
4575;SDS011;2300;51.874;8.430;2022-08-19T08:54:29;14.27;;;10.48;;
4575;SDS011;2300;51.874;8.430;2022-08-19T08:56:59;16.48;;;10.63;;
4575;SDS011;2300;51.874;8.430;2022-08-19T08:59:28;11.82;;;9.57;;
4575;SDS011;2300;51.874;8.430;2022-08-19T09:01:58;11.90;;;10.02;;
4575;SDS011;2300;51.874;8.430;2022-08-19T09:04:24;9.43;;;7.93;;
4575;SDS011;2300;51.874;8.430;2022-08-19T09:06:51;12.05;;;8.75;;
4575;SDS011;2300;51.874;8.430;2022-08-19T09:09:26;11.50;;;9.07;;
4575;SDS011;2300;51.874;8.430;2022-08-19T09:12:02;13.25;;;8.65;;
4575;SDS011;2300;51.874;8.430;2022-08-19T09:14:37;7.97;;;6.95;;
4575;SDS011;2300;51.874;8.430;2022-08-19T09:17:10;10.50;;;7.78;;
4575;SDS011;2300;51.874;8.430;2022-08-19T09:19:46;11.95;;;7.55;;
4575;SDS011;2300;51.874;8.430;2022-08-19T09:22:18;8.05;;;6.30;;
4575;SDS011;2300;51.874;8.430;2022-08-19T09:24:48;8.73;;;6.40;;
4575;SDS011;2300;51.874;8.430;2022-08-19T09:27:15;8.07;;;6.47;;
4575;SDS011;2300;51.874;8.430;2022-08-19T09:29:41;8.75;;;5.32;;
4575;SDS011;2300;51.874;8.430;2022-08-19T09:32:08;8.77;;;6.90;;
4575;SDS011;2300;51.874;8.430;2022-08-19T09:34:34;7.95;;;6.10;;
4575;SDS011;2300;51.874;8.430;2022-08-19T09:37:01;9.27;;;6.57;;
4575;SDS011;2300;51.874;8.430;2022-08-19T09:39:28;8.43;;;6.00;;
4575;SDS011;2300;51.874;8.430;2022-08-19T09:41:57;8.50;;;5.32;;
4575;SDS011;2300;51.874;8.430;2022-08-19T09:44:23;7.50;;;5.70;;
4575;SDS011;2300;51.874;8.430;2022-08-19T09:46:50;9.27;;;5.05;;
4575;SDS011;2300;51.874;8.430;2022-08-19T09:49:17;5.97;;;5.38;;
4575;SDS011;2300;51.874;8.430;2022-08-19T09:51:48;9.95;;;6.38;;
4575;SDS011;2300;51.874;8.430;2022-08-19T09:54:15;7.50;;;5.30;;
4575;SDS011;2300;51.874;8.430;2022-08-19T09:56:42;6.80;;;4.60;;
4575;SDS011;2300;51.874;8.430;2022-08-19T09:59:10;7.25;;;4.45;;
4575;SDS011;2300;51.874;8.430;2022-08-19T10:01:37;5.28;;;3.30;;
4575;SDS011;2300;51.874;8.430;2022-08-19T10:04:04;6.82;;;4.00;;
4575;SDS011;2300;51.874;8.430;2022-08-19T10:06:33;7.85;;;3.55;;
4575;SDS011;2300;51.874;8.430;2022-08-19T10:09:00;6.43;;;3.20;;
4575;SDS011;2300;51.874;8.430;2022-08-19T10:11:29;5.25;;;3.75;;
4575;SDS011;2300;51.874;8.430;2022-08-19T10:13:55;5.88;;;3.53;;
4575;SDS011;2300;51.874;8.430;2022-08-19T10:16:23;5.95;;;3.50;;
4575;SDS011;2300;51.874;8.430;2022-08-19T10:18:50;7.40;;;3.75;;
4575;SDS011;2300;51.874;8.430;2022-08-19T10:21:18;6.78;;;4.28;;
4575;SDS011;2300;51.874;8.430;2022-08-19T10:23:49;6.22;;;3.58;;
4575;SDS011;2300;51.874;8.430;2022-08-19T10:26:19;7.00;;;4.40;;
4575;SDS011;2300;51.874;8.430;2022-08-19T10:28:47;5.70;;;3.85;;
4575;SDS011;2300;51.874;8.430;2022-08-19T10:31:15;8.23;;;3.78;;
4575;SDS011;2300;51.874;8.430;2022-08-19T10:33:46;7.75;;;3.35;;
4575;SDS011;2300;51.874;8.430;2022-08-19T10:36:13;6.28;;;3.00;;
4575;SDS011;2300;51.874;8.430;2022-08-19T10:38:42;5.35;;;3.40;;
4575;SDS011;2300;51.874;8.430;2022-08-19T10:41:11;5.45;;;3.10;;
4575;SDS011;2300;51.874;8.430;2022-08-19T10:43:39;7.88;;;3.80;;
4575;SDS011;2300;51.874;8.430;2022-08-19T10:46:06;6.28;;;4.15;;
4575;SDS011;2300;51.874;8.430;2022-08-19T10:48:34;5.05;;;3.72;;
4575;SDS011;2300;51.874;8.430;2022-08-19T10:51:02;6.07;;;3.30;;
4575;SDS011;2300;51.874;8.430;2022-08-19T10:53:47;4.40;;;2.30;;
4575;SDS011;2300;51.874;8.430;2022-08-19T10:56:14;6.10;;;2.78;;
4575;SDS011;2300;51.874;8.430;2022-08-19T10:58:59;3.35;;;2.00;;
4575;SDS011;2300;51.874;8.430;2022-08-19T11:01:31;4.63;;;2.25;;
4575;SDS011;2300;51.874;8.430;2022-08-19T11:03:59;5.43;;;2.53;;
4575;SDS011;2300;51.874;8.430;2022-08-19T11:06:28;5.22;;;3.47;;
4575;SDS011;2300;51.874;8.430;2022-08-19T11:08:55;5.28;;;3.30;;
4575;SDS011;2300;51.874;8.430;2022-08-19T11:11:22;5.75;;;2.85;;
4575;SDS011;2300;51.874;8.430;2022-08-19T11:13:49;3.97;;;2.63;;
4575;SDS011;2300;51.874;8.430;2022-08-19T11:16:17;5.13;;;2.25;;
4575;SDS011;2300;51.874;8.430;2022-08-19T11:18:45;4.28;;;2.70;;
4575;SDS011;2300;51.874;8.430;2022-08-19T11:21:15;4.35;;;3.05;;
4575;SDS011;2300;51.874;8.430;2022-08-19T11:23:45;5.93;;;2.72;;
4575;SDS011;2300;51.874;8.430;2022-08-19T11:26:13;5.40;;;3.28;;
4575;SDS011;2300;51.874;8.430;2022-08-19T11:28:40;4.75;;;2.60;;
4575;SDS011;2300;51.874;8.430;2022-08-19T11:31:09;5.70;;;3.38;;
4575;SDS011;2300;51.874;8.430;2022-08-19T11:33:37;4.93;;;2.97;;
4575;SDS011;2300;51.874;8.430;2022-08-19T11:36:03;4.30;;;2.83;;
4575;SDS011;2300;51.874;8.430;2022-08-19T11:38:30;4.18;;;3.00;;
4575;SDS011;2300;51.874;8.430;2022-08-19T11:41:00;4.70;;;2.95;;
4575;SDS011;2300;51.874;8.430;2022-08-19T11:43:29;7.28;;;3.72;;
4575;SDS011;2300;51.874;8.430;2022-08-19T11:45:56;4.15;;;2.92;;
4575;SDS011;2300;51.874;8.430;2022-08-19T11:48:23;8.20;;;3.08;;
4575;SDS011;2300;51.874;8.430;2022-08-19T11:50:50;4.07;;;3.03;;
4575;SDS011;2300;51.874;8.430;2022-08-19T11:53:20;5.05;;;3.63;;
4575;SDS011;2300;51.874;8.430;2022-08-19T11:55:47;5.25;;;3.70;;
4575;SDS011;2300;51.874;8.430;2022-08-19T11:58:16;7.43;;;3.35;;
4575;SDS011;2300;51.874;8.430;2022-08-19T12:00:43;5.95;;;3.30;;
4575;SDS011;2300;51.874;8.430;2022-08-19T12:03:12;7.88;;;4.55;;
4575;SDS011;2300;51.874;8.430;2022-08-19T12:05:39;4.05;;;3.30;;
4575;SDS011;2300;51.874;8.430;2022-08-19T12:08:06;4.88;;;3.00;;
4575;SDS011;2300;51.874;8.430;2022-08-19T12:10:33;5.40;;;3.35;;
4575;SDS011;2300;51.874;8.430;2022-08-19T12:13:00;7.05;;;3.70;;
4575;SDS011;2300;51.874;8.430;2022-08-19T12:15:28;4.97;;;3.22;;
4575;SDS011;2300;51.874;8.430;2022-08-19T12:17:55;4.75;;;3.10;;
4575;SDS011;2300;51.874;8.430;2022-08-19T12:20:23;5.63;;;3.10;;
4575;SDS011;2300;51.874;8.430;2022-08-19T12:22:51;4.70;;;3.20;;
4575;SDS011;2300;51.874;8.430;2022-08-19T12:25:18;5.75;;;2.78;;
4575;SDS011;2300;51.874;8.430;2022-08-19T12:27:45;6.80;;;3.30;;
4575;SDS011;2300;51.874;8.430;2022-08-19T12:30:12;3.60;;;2.92;;
4575;SDS011;2300;51.874;8.430;2022-08-19T12:32:40;5.60;;;2.80;;
4575;SDS011;2300;51.874;8.430;2022-08-19T12:35:07;5.65;;;2.75;;
4575;SDS011;2300;51.874;8.430;2022-08-19T12:37:36;5.70;;;3.03;;
4575;SDS011;2300;51.874;8.430;2022-08-19T12:40:03;6.93;;;2.90;;
4575;SDS011;2300;51.874;8.430;2022-08-19T12:42:31;7.35;;;2.90;;
4575;SDS011;2300;51.874;8.430;2022-08-19T12:44:57;3.85;;;2.90;;
4575;SDS011;2300;51.874;8.430;2022-08-19T12:47:24;5.90;;;3.13;;
4575;SDS011;2300;51.874;8.430;2022-08-19T12:49:52;4.63;;;2.90;;
4575;SDS011;2300;51.874;8.430;2022-08-19T12:52:19;3.38;;;2.80;;
4575;SDS011;2300;51.874;8.430;2022-08-19T12:54:46;3.33;;;2.90;;
4575;SDS011;2300;51.874;8.430;2022-08-19T12:57:12;4.30;;;3.10;;
4575;SDS011;2300;51.874;8.430;2022-08-19T12:59:40;5.97;;;3.53;;
4575;SDS011;2300;51.874;8.430;2022-08-19T13:02:07;6.32;;;3.20;;
4575;SDS011;2300;51.874;8.430;2022-08-19T13:04:34;5.80;;;2.95;;
4575;SDS011;2300;51.874;8.430;2022-08-19T13:07:06;7.97;;;4.00;;
4575;SDS011;2300;51.874;8.430;2022-08-19T13:09:33;4.13;;;3.25;;
4575;SDS011;2300;51.874;8.430;2022-08-19T13:12:01;5.82;;;3.10;;
4575;SDS011;2300;51.874;8.430;2022-08-19T13:14:28;5.18;;;3.55;;
4575;SDS011;2300;51.874;8.430;2022-08-19T13:16:56;7.38;;;3.20;;
4575;SDS011;2300;51.874;8.430;2022-08-19T13:19:23;4.65;;;3.08;;
4575;SDS011;2300;51.874;8.430;2022-08-19T13:21:50;5.28;;;3.20;;
4575;SDS011;2300;51.874;8.430;2022-08-19T13:24:18;6.25;;;3.20;;
4575;SDS011;2300;51.874;8.430;2022-08-19T13:26:45;8.00;;;3.25;;
4575;SDS011;2300;51.874;8.430;2022-08-19T13:29:12;8.10;;;3.53;;
4575;SDS011;2300;51.874;8.430;2022-08-19T13:31:53;4.53;;;3.63;;
4575;SDS011;2300;51.874;8.430;2022-08-19T13:34:37;4.97;;;3.55;;
4575;SDS011;2300;51.874;8.430;2022-08-19T13:37:04;6.50;;;3.40;;
4575;SDS011;2300;51.874;8.430;2022-08-19T13:39:33;5.50;;;3.30;;
4575;SDS011;2300;51.874;8.430;2022-08-19T13:42:00;9.95;;;3.08;;
4575;SDS011;2300;51.874;8.430;2022-08-19T13:44:29;5.25;;;3.40;;
4575;SDS011;2300;51.874;8.430;2022-08-19T13:46:59;3.28;;;2.80;;
4575;SDS011;2300;51.874;8.430;2022-08-19T13:49:30;6.93;;;3.13;;
4575;SDS011;2300;51.874;8.430;2022-08-19T13:51:58;7.78;;;3.45;;
4575;SDS011;2300;51.874;8.430;2022-08-19T13:54:24;10.65;;;3.65;;
4575;SDS011;2300;51.874;8.430;2022-08-19T13:56:53;4.28;;;3.25;;
4575;SDS011;2300;51.874;8.430;2022-08-19T13:59:19;4.63;;;2.50;;
4575;SDS011;2300;51.874;8.430;2022-08-19T14:01:46;4.90;;;2.67;;
4575;SDS011;2300;51.874;8.430;2022-08-19T14:04:13;4.28;;;2.80;;
4575;SDS011;2300;51.874;8.430;2022-08-19T14:06:39;18.85;;;3.92;;
4575;SDS011;2300;51.874;8.430;2022-08-19T14:09:06;3.75;;;2.75;;
4575;SDS011;2300;51.874;8.430;2022-08-19T14:11:32;3.33;;;2.95;;
4575;SDS011;2300;51.874;8.430;2022-08-19T14:14:00;7.82;;;3.08;;
4575;SDS011;2300;51.874;8.430;2022-08-19T14:16:27;4.55;;;2.95;;
4575;SDS011;2300;51.874;8.430;2022-08-19T14:18:55;6.15;;;3.30;;
4575;SDS011;2300;51.874;8.430;2022-08-19T14:21:22;5.00;;;2.80;;
4575;SDS011;2300;51.874;8.430;2022-08-19T14:23:50;5.28;;;3.25;;
4575;SDS011;2300;51.874;8.430;2022-08-19T14:26:17;5.20;;;3.00;;
4575;SDS011;2300;51.874;8.430;2022-08-19T14:28:45;5.32;;;3.00;;
4575;SDS011;2300;51.874;8.430;2022-08-19T14:31:14;4.78;;;2.50;;
4575;SDS011;2300;51.874;8.430;2022-08-19T14:33:44;4.60;;;2.90;;
4575;SDS011;2300;51.874;8.430;2022-08-19T14:36:10;3.92;;;2.63;;
4575;SDS011;2300;51.874;8.430;2022-08-19T14:38:37;3.90;;;3.10;;
4575;SDS011;2300;51.874;8.430;2022-08-19T14:41:11;3.88;;;2.78;;
4575;SDS011;2300;51.874;8.430;2022-08-19T14:43:40;4.43;;;3.05;;
4575;SDS011;2300;51.874;8.430;2022-08-19T14:46:07;4.00;;;2.90;;
4575;SDS011;2300;51.874;8.430;2022-08-19T14:48:36;5.53;;;3.20;;
4575;SDS011;2300;51.874;8.430;2022-08-19T14:51:03;4.25;;;3.10;;
4575;SDS011;2300;51.874;8.430;2022-08-19T14:53:30;4.18;;;2.97;;
4575;SDS011;2300;51.874;8.430;2022-08-19T14:55:58;5.25;;;3.35;;
4575;SDS011;2300;51.874;8.430;2022-08-19T14:58:25;6.60;;;3.15;;
4575;SDS011;2300;51.874;8.430;2022-08-19T15:00:53;3.28;;;2.92;;
4575;SDS011;2300;51.874;8.430;2022-08-19T15:03:19;6.40;;;3.47;;
4575;SDS011;2300;51.874;8.430;2022-08-19T15:05:47;6.43;;;3.40;;
4575;SDS011;2300;51.874;8.430;2022-08-19T15:08:13;4.75;;;3.08;;
4575;SDS011;2300;51.874;8.430;2022-08-19T15:10:40;4.03;;;3.08;;
4575;SDS011;2300;51.874;8.430;2022-08-19T15:13:06;11.23;;;3.55;;
4575;SDS011;2300;51.874;8.430;2022-08-19T15:15:34;5.32;;;3.20;;